Time;durP1;ratioP1;P1;durP2;ratioP2;P2;SDS_P1;SDS_P2;PMS_P1;PMS_P2;Temp;Humidity;BMP_temperature;BMP_pressure;BME280_temperature;BME280_humidity;BME280_pressure;Samples;Min_cycle;Max_cycle;Signal;HPM_P1;HPM_P2
2023/08/29 00:00:39;;;;;;;0.22;0.22;;;12.10;99.90;;;;;;5155227;27;20054;-65
2023/08/29 00:03:05;;;;;;;;;;;12.20;99.90;;;;;;5136850;27;20042;-63
2023/08/29 00:05:31;;;;;;;0.20;0.20;;;12.40;99.90;;;;;;5155114;27;19919;-63
2023/08/29 00:07:57;;;;;;;;;;;12.30;99.90;;;;;;5155359;27;20181;-63
2023/08/29 00:10:23;;;;;;;0.13;0.13;;;12.20;99.90;;;;;;5155087;27;20279;-63
2023/08/29 00:12:48;;;;;;;;;;;12.10;99.90;;;;;;5155383;27;20045;-63
2023/08/29 00:15:14;;;;;;;0.40;0.40;;;12.30;99.90;;;;;;5155053;27;20353;-63
2023/08/29 00:17:40;;;;;;;0.22;0.22;;;12.30;99.90;;;;;;5135936;27;20103;-64
2023/08/29 00:20:06;;;;;;;0.17;0.17;;;11.90;99.90;;;;;;5154861;27;20095;-63
2023/08/29 00:22:32;;;;;;;1.55;0.32;;;12.20;99.90;;;;;;5154613;27;20039;-63
2023/08/29 00:24:58;;;;;;;0.45;0.45;;;12.60;99.90;;;;;;5155169;27;20091;-62
2023/08/29 00:27:24;;;;;;;0.25;0.25;;;12.40;99.90;;;;;;5155261;27;20094;-66
2023/08/29 00:29:49;;;;;;;;;;;12.20;99.90;;;;;;5155736;27;20387;-63
2023/08/29 00:32:16;;;;;;;0.13;0.13;;;12.40;99.90;;;;;;5155108;27;19923;-63
2023/08/29 00:34:41;;;;;;;;;;;12.30;99.90;;;;;;5155275;27;20053;-63
2023/08/29 00:37:07;;;;;;;0.28;0.28;;;12.20;99.90;;;;;;5154901;27;19919;-63
2023/08/29 00:39:33;;;;;;;0.20;0.20;;;12.20;99.90;;;;;;5154832;27;20494;-63
2023/08/29 00:42:00;;;;;;;0.98;0.50;;;12.10;99.90;;;;;;5154839;27;20123;-64
2023/08/29 00:44:26;;;;;;;0.35;0.32;;;12.00;99.90;;;;;;5154603;27;20050;-63
2023/08/29 00:46:53;;;;;;;0.38;0.38;;;11.90;99.90;;;;;;5154186;27;20050;-64
2023/08/29 00:49:27;;;;;;;0.20;0.20;;;11.90;99.90;;;;;;5154523;27;20145;-62
2023/08/29 00:51:53;;;;;;;0.10;0.10;;;12.00;99.90;;;;;;5154578;27;20158;-63
2023/08/29 00:54:20;;;;;;;0.30;0.30;;;12.30;99.90;;;;;;5154448;27;20057;-63
2023/08/29 00:56:47;;;;;;;0.10;0.10;;;12.30;99.90;;;;;;5154383;27;20231;-64
2023/08/29 00:59:14;;;;;;;0.40;0.40;;;12.10;99.90;;;;;;5154341;27;20111;-63
2023/08/29 01:01:40;;;;;;;0.50;0.50;;;12.10;99.90;;;;;;5154374;27;20190;-64
2023/08/29 01:04:06;;;;;;;0.20;0.20;;;12.30;99.90;;;;;;5154224;27;20563;-63
2023/08/29 01:06:32;;;;;;;;;;;11.90;99.90;;;;;;5154798;27;20351;-63
2023/08/29 01:08:59;;;;;;;0.20;0.20;;;11.90;99.90;;;;;;5154222;27;20397;-62
2023/08/29 01:11:40;;;;;;;0.22;0.22;;;12.20;99.90;;;;;;5154135;27;20043;-63
2023/08/29 01:14:33;;;;;;;0.20;0.20;;;11.80;99.90;;;;;;5154077;27;20106;-64
2023/08/29 01:17:07;;;;;;;0.30;0.30;;;11.80;99.90;;;;;;5153818;27;20642;-64
2023/08/29 01:19:39;;;;;;;0.20;0.20;;;12.20;99.90;;;;;;5154135;27;20047;-64
2023/08/29 01:22:25;;;;;;;0.20;0.20;;;11.80;99.90;;;;;;5153948;27;20054;-63
2023/08/29 01:25:00;;;;;;;0.47;0.40;;;12.10;99.90;;;;;;5134798;27;20517;-64
2023/08/29 01:27:27;;;;;;;0.35;0.35;;;11.90;99.90;;;;;;5153975;27;20072;-65
2023/08/29 01:29:53;;;;;;;0.30;0.30;;;12.00;99.90;;;;;;5153154;27;20205;-63
2023/08/29 01:32:20;;;;;;;0.20;0.20;;;11.80;99.90;;;;;;5153837;27;20078;-65
2023/08/29 01:34:46;;;;;;;0.80;0.80;;;11.90;99.90;;;;;;5153870;27;20042;-63
2023/08/29 01:37:12;;;;;;;0.20;0.20;;;11.70;99.90;;;;;;5153789;27;20046;-63
2023/08/29 01:39:38;;;;;;;0.20;0.20;;;12.10;99.90;;;;;;5153925;27;20114;-62
2023/08/29 01:42:03;;;;;;;;;;;11.90;99.90;;;;;;5154070;27;20034;-62
2023/08/29 01:44:29;;;;;;;0.55;0.40;;;11.70;99.90;;;;;;5153610;27;19976;-63
2023/08/29 01:46:55;;;;;;;0.20;0.20;;;11.80;99.90;;;;;;5153614;27;20125;-64
2023/08/29 01:49:20;;;;;;;2.13;1.92;;;11.90;99.90;;;;;;5153538;27;20038;-63
2023/08/29 01:51:46;;;;;;;0.20;0.20;;;11.70;99.90;;;;;;5153454;27;20050;-63
2023/08/29 01:54:12;;;;;;;0.30;0.30;;;11.70;99.90;;;;;;5153318;27;20048;-63
2023/08/29 01:56:39;;;;;;;0.30;0.30;;;11.70;99.90;;;;;;5153452;27;20050;-63
2023/08/29 01:59:06;;;;;;;0.17;0.17;;;11.70;99.90;;;;;;5153416;27;20063;-62
2023/08/29 02:01:33;;;;;;;0.10;0.10;;;11.70;99.90;;;;;;5153315;27;20085;-62
2023/08/29 02:03:58;;;;;;;0.20;0.20;;;11.60;99.90;;;;;;5153241;27;20089;-62
2023/08/29 02:06:24;;;;;;;0.32;0.32;;;11.50;99.90;;;;;;5152947;27;20585;-62
2023/08/29 02:08:50;;;;;;;0.20;0.20;;;11.80;99.90;;;;;;5152930;27;20051;-63
2023/08/29 02:11:16;;;;;;;0.20;0.20;;;11.60;99.90;;;;;;5153239;27;20054;-63
2023/08/29 02:13:41;;;;;;;0.20;0.20;;;11.70;99.90;;;;;;5134691;27;20475;-64
2023/08/29 02:16:07;;;;;;;0.28;0.28;;;11.80;99.90;;;;;;5153234;27;20047;-63
2023/08/29 02:18:33;;;;;;;0.20;0.20;;;11.70;99.90;;;;;;5153252;27;20051;-63
2023/08/29 02:20:59;;;;;;;0.30;0.30;;;11.80;99.90;;;;;;5153181;27;20038;-63
2023/08/29 02:23:25;;;;;;;0.20;0.20;;;11.60;99.90;;;;;;5152966;27;20078;-62
2023/08/29 02:26:02;;;;;;;0.20;0.20;;;11.80;99.90;;;;;;5153044;27;20109;-62
2023/08/29 02:28:27;;;;;;;0.20;0.20;;;11.50;99.90;;;;;;5153121;27;20503;-63
2023/08/29 02:30:53;;;;;;;0.20;0.20;;;11.80;99.90;;;;;;5153447;27;20047;-64
2023/08/29 02:33:19;;;;;;;0.30;0.30;;;11.60;99.90;;;;;;5152978;27;20394;-62
2023/08/29 02:35:44;;;;;;;0.22;0.22;;;11.90;99.90;;;;;;5153253;27;20042;-63
2023/08/29 02:38:10;;;;;;;0.20;0.20;;;11.60;99.90;;;;;;5153045;27;20055;-64
2023/08/29 02:40:36;;;;;;;0.40;0.40;;;11.70;99.90;;;;;;5155601;27;20049;-63
2023/08/29 02:43:01;;;;;;;0.25;0.25;;;12.10;99.90;;;;;;5157048;27;20030;-62
2023/08/29 02:45:27;;;;;;;0.22;0.22;;;11.70;99.90;;;;;;5157031;27;20537;-62
2023/08/29 02:47:52;;;;;;;0.20;0.20;;;11.80;99.90;;;;;;5157096;27;20787;-62
2023/08/29 02:50:18;;;;;;;0.20;0.20;;;11.50;99.90;;;;;;5156993;27;20046;-63
2023/08/29 02:52:44;;;;;;;0.40;0.40;;;11.70;99.90;;;;;;5156992;27;20039;-62
2023/08/29 02:55:10;;;;;;;0.20;0.20;;;11.80;99.90;;;;;;5156928;27;20127;-62
2023/08/29 02:57:35;;;;;;;0.20;0.20;;;11.40;99.90;;;;;;5156775;27;20051;-63
2023/08/29 03:00:01;;;;;;;0.30;0.30;;;11.60;99.90;;;;;;5156798;27;20057;-62
2023/08/29 03:02:27;;;;;;;0.30;0.30;;;11.50;99.90;;;;;;5156281;27;20039;-62
2023/08/29 03:04:53;;;;;;;0.20;0.20;;;11.60;99.90;;;;;;5156675;27;20039;-62
2023/08/29 03:07:19;;;;;;;0.20;0.20;;;11.40;99.90;;;;;;5156184;27;20125;-62
2023/08/29 03:09:44;;;;;;;0.20;0.20;;;11.60;99.90;;;;;;5138086;27;20134;-65
2023/08/29 03:12:10;;;;;;;0.20;0.20;;;11.30;99.90;;;;;;5156562;27;20047;-63
2023/08/29 03:14:36;;;;;;;0.20;0.20;;;11.50;99.90;;;;;;5138247;27;20057;-63
2023/08/29 03:17:01;;;;;;;0.20;0.20;;;11.80;99.90;;;;;;5156478;27;20482;-63
2023/08/29 03:19:27;;;;;;;0.20;0.20;;;11.40;99.90;;;;;;5156477;27;20042;-63
2023/08/29 03:21:53;;;;;;;0.20;0.20;;;11.80;99.90;;;;;;5156516;27;20054;-63
2023/08/29 03:24:19;;;;;;;0.55;0.55;;;11.70;99.90;;;;;;5156531;27;20035;-62
2023/08/29 03:26:45;;;;;;;0.38;0.35;;;11.50;99.90;;;;;;5138264;27;20043;-62
2023/08/29 03:29:10;;;;;;;0.20;0.20;;;11.70;99.90;;;;;;5156351;27;20513;-65
2023/08/29 03:31:36;;;;;;;0.22;0.22;;;11.70;99.90;;;;;;5156404;27;20046;-63
2023/08/29 03:34:02;;;;;;;0.28;0.28;;;11.10;99.90;;;;;;5138009;27;20043;-62
2023/08/29 03:36:28;;;;;;;0.20;0.20;;;11.40;99.90;;;;;;5156255;27;20050;-63
2023/08/29 03:38:53;;;;;;;0.43;0.43;;;11.20;99.90;;;;;;5156125;27;20038;-62
2023/08/29 03:41:19;;;;;;;0.20;0.20;;;11.10;99.90;;;;;;5156286;27;20043;-62
2023/08/29 03:43:44;;;;;;;0.20;0.20;;;11.20;99.90;;;;;;5156205;27;20125;-62
2023/08/29 03:46:10;;;;;;;0.98;0.63;;;11.40;99.90;;;;;;5156090;27;20046;-62
2023/08/29 03:48:36;;;;;;;0.20;0.20;;;11.30;99.90;;;;;;5155948;27;20050;-64
2023/08/29 03:51:05;;;;;;;0.30;0.30;;;11.30;99.90;;;;;;5155227;27;20046;-63
2023/08/29 03:53:32;;;;;;;0.30;0.30;;;11.20;99.90;;;;;;5155460;27;20043;-64
2023/08/29 03:56:05;;;;;;;0.52;0.30;;;11.60;99.90;;;;;;5155736;27;20095;-63
2023/08/29 03:58:32;;;;;;;0.28;0.28;;;11.30;99.90;;;;;;5155713;27;20054;-63
2023/08/29 04:00:59;;;;;;;0.20;0.20;;;11.30;99.90;;;;;;5155737;27;20086;-63
2023/08/29 04:03:25;;;;;;;0.20;0.20;;;11.20;99.90;;;;;;5155530;27;20042;-62
2023/08/29 04:05:50;;;;;;;0.10;0.10;;;11.60;99.90;;;;;;5155307;27;20046;-62
2023/08/29 04:08:16;;;;;;;0.20;0.20;;;11.50;99.90;;;;;;5155061;27;20097;-63
2023/08/29 04:10:42;;;;;;;;;;;11.40;99.90;;;;;;5137323;27;20054;-62
2023/08/29 04:13:08;;;;;;;0.60;0.60;;;11.20;99.90;;;;;;5155338;27;19927;-64
2023/08/29 04:15:34;;;;;;;0.20;0.20;;;11.30;99.90;;;;;;5155381;27;20054;-63
2023/08/29 04:18:01;;;;;;;0.80;0.50;;;11.30;99.90;;;;;;5155286;27;20394;-62
2023/08/29 04:20:28;;;;;;;0.28;0.28;;;10.90;99.90;;;;;;5155196;27;20049;-63
2023/08/29 04:22:54;;;;;;;0.25;0.25;;;11.30;99.90;;;;;;5155125;27;20176;-65
2023/08/29 04:25:20;;;;;;;0.20;0.20;;;11.10;99.90;;;;;;5155233;27;20050;-62
2023/08/29 04:27:46;;;;;;;0.30;0.30;;;10.80;99.90;;;;;;5154617;27;20431;-62
2023/08/29 04:30:12;;;;;;;0.47;0.47;;;11.20;99.90;;;;;;5154960;27;20058;-63
2023/08/29 04:32:38;;;;;;;0.28;0.28;;;11.00;99.90;;;;;;5154932;27;20046;-63
2023/08/29 04:35:06;;;;;;;0.30;0.30;;;10.90;99.90;;;;;;5155343;27;20139;-63
2023/08/29 04:37:32;;;;;;;0.28;0.28;;;10.70;99.90;;;;;;5154910;27;20482;-63
2023/08/29 04:39:58;;;;;;;0.20;0.20;;;11.00;99.90;;;;;;5154806;27;20502;-62
2023/08/29 04:42:24;;;;;;;0.20;0.20;;;10.80;99.90;;;;;;5154709;27;20436;-62
2023/08/29 04:44:51;;;;;;;2.65;0.30;;;10.70;99.90;;;;;;5136186;27;20099;-64
2023/08/29 04:47:16;;;;;;;0.20;0.20;;;10.90;99.90;;;;;;5154637;27;20115;-62
2023/08/29 04:49:42;;;;;;;0.20;0.20;;;10.90;99.90;;;;;;5154637;27;20043;-62
2023/08/29 04:52:08;;;;;;;0.20;0.20;;;10.50;99.90;;;;;;5154659;27;20050;-61
2023/08/29 04:54:33;;;;;;;0.30;0.30;;;10.10;99.90;;;;;;5135946;27;20049;-65
2023/08/29 04:56:59;;;;;;;0.30;0.30;;;10.90;99.90;;;;;;5154587;27;20078;-62
2023/08/29 04:59:25;;;;;;;0.20;0.20;;;10.70;99.90;;;;;;5135515;27;20042;-62
2023/08/29 05:01:50;;;;;;;0.25;0.25;;;10.20;99.90;;;;;;5154753;27;20080;-62
2023/08/29 05:04:16;;;;;;;0.10;0.10;;;10.40;99.90;;;;;;5153329;27;20043;-63
2023/08/29 05:06:42;;;;;;;0.20;0.20;;;10.40;99.90;;;;;;5136075;27;20042;-62
2023/08/29 05:09:09;;;;;;;0.30;0.30;;;10.50;99.90;;;;;;5153606;27;20530;-63
2023/08/29 05:11:35;;;;;;;0.10;0.10;;;11.00;99.90;;;;;;5154225;27;20054;-62
2023/08/29 05:14:00;;;;;;;0.25;0.25;;;10.80;99.90;;;;;;5154188;27;20165;-62
2023/08/29 05:16:26;;;;;;;0.30;0.30;;;10.70;99.90;;;;;;5154131;27;20118;-62
2023/08/29 05:18:51;;;;;;;0.20;0.20;;;10.70;99.90;;;;;;5154135;27;20102;-63
2023/08/29 05:21:17;;;;;;;0.20;0.20;;;11.10;99.90;;;;;;5154050;27;20558;-62
2023/08/29 05:23:43;;;;;;;0.30;0.30;;;11.20;99.90;;;;;;5154296;27;20401;-62
2023/08/29 05:26:08;;;;;;;0.30;0.30;;;11.10;99.90;;;;;;5153991;27;20042;-62
2023/08/29 05:28:34;;;;;;;0.20;0.20;;;10.80;99.90;;;;;;5154060;27;20146;-62
2023/08/29 05:31:00;;;;;;;0.20;0.20;;;11.10;99.90;;;;;;5154208;27;20092;-63
2023/08/29 05:33:26;;;;;;;0.20;0.20;;;10.90;99.90;;;;;;5135414;27;20038;-63
2023/08/29 05:35:51;;;;;;;0.32;0.32;;;11.10;99.90;;;;;;5153823;27;20050;-62
2023/08/29 05:38:17;;;;;;;0.32;0.32;;;10.80;99.90;;;;;;5153711;27;20561;-62
2023/08/29 05:40:42;;;;;;;0.10;0.10;;;12.20;99.90;;;;;;5153769;27;20046;-64
2023/08/29 05:43:08;;;;;;;0.30;0.30;;;11.40;99.90;;;;;;5153600;27;20150;-62
2023/08/29 05:45:34;;;;;;;1.55;0.40;;;11.20;99.90;;;;;;5153617;27;20039;-62
2023/08/29 05:47:59;;;;;;;0.30;0.30;;;11.20;99.90;;;;;;5153594;27;20046;-62
2023/08/29 05:50:26;;;;;;;0.10;0.10;;;11.60;99.90;;;;;;5153446;27;20053;-68
2023/08/29 05:52:52;;;;;;;0.20;0.20;;;9.60;99.90;;;;;;5145480;27;20533;-62
2023/08/29 05:55:18;;;;;;;0.20;0.20;;;11.60;99.90;;;;;;5152930;27;20055;-63
2023/08/29 05:57:43;;;;;;;0.15;0.15;;;11.90;99.90;;;;;;5152786;27;20061;-63
2023/08/29 06:00:13;;;;;;;0.40;0.40;;;11.40;99.90;;;;;;5152448;27;20042;-62
2023/08/29 06:02:39;;;;;;;0.20;0.20;;;11.90;99.90;;;;;;5133144;27;20050;-64
2023/08/29 06:05:06;;;;;;;0.30;0.30;;;12.20;99.90;;;;;;5133872;27;20382;-62
2023/08/29 06:07:33;;;;;;;0.20;0.20;;;12.20;99.90;;;;;;5151774;27;20398;-62
2023/08/29 06:09:59;;;;;;;0.30;0.30;;;12.60;99.90;;;;;;5152330;27;20051;-62
2023/08/29 06:12:25;;;;;;;0.20;0.20;;;12.40;99.90;;;;;;5152625;27;20051;-64
2023/08/29 06:14:51;;;;;;;0.20;0.20;;;12.40;99.90;;;;;;5151818;27;20170;-62
2023/08/29 06:17:17;;;;;;;0.47;0.47;;;12.70;99.90;;;;;;5152821;27;20474;-63
2023/08/29 06:19:42;;;;;;;0.20;0.20;;;12.70;99.90;;;;;;5152357;27;20086;-62
2023/08/29 06:22:08;;;;;;;0.32;0.32;;;13.00;99.90;;;;;;5151763;27;20103;-68
2023/08/29 06:24:33;;;;;;;0.20;0.20;;;13.60;99.90;;;;;;5152522;27;20042;-62
2023/08/29 06:26:59;;;;;;;0.20;0.20;;;13.40;99.90;;;;;;5152647;27;20042;-62
2023/08/29 06:29:25;;;;;;;0.20;0.20;;;13.40;99.90;;;;;;5151533;27;20043;-62
2023/08/29 06:31:51;;;;;;;;;;;13.60;99.90;;;;;;5152801;27;20050;-62
2023/08/29 06:34:16;;;;;;;0.20;0.20;;;14.20;99.90;;;;;;5133928;27;19927;-62
2023/08/29 06:36:42;;;;;;;0.20;0.20;;;13.90;99.90;;;;;;5133144;27;20141;-64
2023/08/29 06:39:08;;;;;;;;;;;14.20;99.90;;;;;;5153071;27;20050;-64
2023/08/29 06:41:34;;;;;;;0.10;0.10;;;14.50;99.90;;;;;;5152323;27;19919;-61
2023/08/29 06:43:59;;;;;;;0.20;0.20;;;14.70;99.90;;;;;;5151606;27;20046;-61
2023/08/29 06:46:25;;;;;;;;;;;15.00;99.90;;;;;;5152678;27;20042;-61
2023/08/29 06:48:50;;;;;;;0.20;0.20;;;14.80;99.90;;;;;;5133752;27;19945;-61
2023/08/29 06:51:16;;;;;;;0.20;0.20;;;15.10;99.90;;;;;;5151608;27;20042;-62
2023/08/29 06:53:42;;;;;;;;;;;15.30;99.90;;;;;;5152784;27;20094;-62
2023/08/29 06:56:07;;;;;;;0.32;0.32;;;15.30;99.90;;;;;;5152514;27;20046;-62
2023/08/29 06:58:33;;;;;;;0.10;0.10;;;15.20;99.90;;;;;;5151695;27;20050;-63
2023/08/29 07:00:59;;;;;;;;;;;15.40;99.90;;;;;;5152630;27;20039;-62
2023/08/29 07:03:24;;;;;;;0.10;0.10;;;15.30;99.90;;;;;;5152210;27;20396;-62
2023/08/29 07:05:50;;;;;;;0.45;0.38;;;15.20;99.90;;;;;;5150784;27;20039;-61
2023/08/29 07:08:16;;;;;;;;;;;15.50;99.90;;;;;;5151425;27;20063;-62
2023/08/29 07:10:41;;;;;;;1.17;0.45;;;15.50;99.90;;;;;;5150887;27;20009;-62
2023/08/29 07:13:07;;;;;;;;;;;15.20;99.90;;;;;;5151374;27;20046;-61
2023/08/29 07:15:32;;;;;;;0.10;0.10;;;15.60;99.90;;;;;;5153094;27;20526;-62
2023/08/29 07:17:58;;;;;;;;;;;15.70;99.90;;;;;;5153188;27;20725;-61
2023/08/29 07:20:24;;;;;;;0.22;0.22;;;15.40;99.90;;;;;;5152937;27;19923;-63
2023/08/29 07:22:49;;;;;;;;;;;15.40;99.90;;;;;;5153358;27;20078;-62
2023/08/29 07:25:19;;;;;;;0.20;0.20;;;15.60;99.90;;;;;;5146150;27;19919;-61
2023/08/29 07:27:45;;;;;;;0.45;0.45;;;15.50;99.90;;;;;;5154529;27;20450;-61
2023/08/29 07:30:14;;;;;;;;;;;15.50;99.90;;;;;;5156070;27;20113;-62
2023/08/29 07:32:41;;;;;;;0.30;0.30;;;15.70;99.90;;;;;;5155099;27;19930;-63
2023/08/29 07:35:08;;;;;;;0.30;0.30;;;15.70;99.90;;;;;;5155578;27;20402;-62
2023/08/29 07:37:33;;;;;;;0.40;0.40;;;16.00;99.90;;;;;;5155800;27;20107;-61
2023/08/29 07:39:59;;;;;;;;;;;15.90;99.90;;;;;;5155563;27;20042;-62
2023/08/29 07:42:25;;;;;;;0.10;0.10;;;16.00;99.90;;;;;;5155981;27;19930;-65
2023/08/29 07:44:50;;;;;;;;;;;16.10;99.90;;;;;;5155676;27;20100;-62
2023/08/29 07:47:16;;;;;;;0.13;0.13;;;16.40;99.90;;;;;;5154577;27;19930;-62
2023/08/29 07:49:42;;;;;;;;;;;16.20;99.90;;;;;;5154988;27;20038;-65
2023/08/29 07:52:08;;;;;;;0.22;0.22;;;16.20;99.90;;;;;;5155356;27;19922;-62
2023/08/29 07:54:33;;;;;;;;;;;16.60;99.90;;;;;;5154713;27;20745;-62
2023/08/29 07:56:59;;;;;;;0.10;0.10;;;16.60;99.90;;;;;;5154215;27;19923;-62
2023/08/29 07:59:25;;;;;;;;;;;16.90;99.90;;;;;;5155890;27;20171;-62
2023/08/29 08:01:52;;;;;;;0.10;0.10;;;16.90;99.90;;;;;;5155592;27;19923;-62
2023/08/29 08:04:18;;;;;;;0.10;0.10;;;16.70;99.90;;;;;;5155539;27;20117;-62
2023/08/29 08:06:44;;;;;;;0.85;0.85;;;16.60;99.90;;;;;;5155536;27;20054;-63
2023/08/29 08:09:09;;;;;;;;;;;16.90;99.90;;;;;;5150008;27;20038;-67
2023/08/29 08:11:35;;;;;;;0.20;0.20;;;16.80;99.90;;;;;;5151096;27;19948;-61
2023/08/29 08:14:01;;;;;;;;;;;16.70;99.90;;;;;;5134326;27;20780;-63
2023/08/29 08:16:26;;;;;;;0.10;0.10;;;16.90;99.90;;;;;;5134526;27;19923;-63
2023/08/29 08:18:52;;;;;;;;;;;16.90;99.90;;;;;;5142647;27;20709;-62
2023/08/29 08:21:20;;;;;;;0.10;0.10;;;17.10;99.90;;;;;;5134080;27;19929;-60
2023/08/29 08:23:46;;;;;;;0.20;0.20;;;17.30;99.90;;;;;;5133769;27;20443;-63
2023/08/29 08:26:12;;;;;;;;;;;17.10;99.90;;;;;;5134109;27;20184;-64
2023/08/29 08:28:37;;;;;;;0.60;0.47;;;17.50;99.90;;;;;;5142623;27;19930;-66
2023/08/29 08:31:05;;;;;;;0.63;0.50;;;17.30;99.90;;;;;;5133831;27;20487;-62
2023/08/29 08:33:30;;;;;;;0.20;0.20;;;17.40;99.90;;;;;;5133931;27;20496;-61
2023/08/29 08:35:56;;;;;;;0.20;0.20;;;17.20;99.90;;;;;;5142521;27;20138;-63
2023/08/29 08:38:22;;;;;;;0.15;0.15;;;17.50;99.90;;;;;;5142238;27;20062;-63
2023/08/29 08:40:47;;;;;;;;;;;17.70;99.90;;;;;;5133992;27;20134;-62
2023/08/29 08:43:14;;;;;;;0.20;0.20;;;17.40;99.90;;;;;;5133502;27;19977;-64
2023/08/29 08:45:41;;;;;;;0.35;0.15;;;17.80;99.90;;;;;;5133434;27;20046;-64
2023/08/29 08:48:07;;;;;;;0.50;0.50;;;17.60;99.90;;;;;;5142090;27;20042;-61
2023/08/29 08:50:33;;;;;;;0.28;0.28;;;18.00;99.90;;;;;;5133788;27;20047;-62
2023/08/29 08:53:00;;;;;;;0.10;0.10;;;17.80;99.90;;;;;;5132781;27;20088;-63
2023/08/29 08:55:26;;;;;;;0.10;0.10;;;18.00;99.90;;;;;;5141679;27;20177;-63
2023/08/29 08:57:52;;;;;;;0.10;0.10;;;17.80;99.90;;;;;;5133461;27;20047;-69
2023/08/29 09:00:19;;;;;;;0.17;0.10;;;18.10;99.90;;;;;;5147280;27;20057;-64
2023/08/29 09:02:45;;;;;;;0.10;0.10;;;18.30;99.90;;;;;;5133123;27;20051;-62
2023/08/29 09:05:11;;;;;;;0.10;0.10;;;18.10;99.90;;;;;;5121742;27;20096;-61
2023/08/29 09:07:38;;;;;;;0.20;0.20;;;18.10;99.90;;;;;;5133214;27;20047;-61
2023/08/29 09:10:11;;;;;;;0.10;0.10;;;18.20;99.90;;;;;;5135284;27;20407;-62
2023/08/29 09:12:55;;;;;;;0.35;0.35;;;18.00;99.90;;;;;;5133568;27;20079;-63
2023/08/29 09:15:21;;;;;;;0.20;0.20;;;18.20;99.90;;;;;;5133655;27;20047;-63
2023/08/29 09:17:51;;;;;;;0.10;0.10;;;18.50;99.90;;;;;;5134971;27;20081;-61
2023/08/29 09:20:18;;;;;;;0.20;0.20;;;18.00;99.90;;;;;;5143572;27;20122;-61
2023/08/29 09:22:45;;;;;;;0.20;0.20;;;18.20;99.90;;;;;;5132538;27;20043;-61
2023/08/29 09:25:11;;;;;;;0.40;0.40;;;18.30;99.90;;;;;;5141214;27;20055;-64
2023/08/29 09:27:41;;;;;;;0.13;0.13;;;18.30;99.90;;;;;;5134029;27;20564;-63
2023/08/29 09:30:10;;;;;;;0.20;0.20;;;18.40;99.90;;;;;;5153627;27;20046;-62
2023/08/29 09:32:36;;;;;;;0.10;0.10;;;18.90;99.90;;;;;;5153835;27;20054;-64
2023/08/29 09:35:05;;;;;;;0.20;0.20;;;18.80;99.90;;;;;;5135324;27;20099;-62
2023/08/29 09:37:31;;;;;;;0.10;0.10;;;19.00;99.90;;;;;;5153733;27;20401;-62
2023/08/29 09:39:57;;;;;;;0.10;0.10;;;19.00;99.90;;;;;;5153728;27;20054;-62
2023/08/29 09:42:23;;;;;;;0.52;0.52;;;19.10;99.90;;;;;;5153693;27;20052;-62
2023/08/29 09:44:50;;;;;;;0.00;0.00;;;19.30;99.90;;;;;;5153538;27;20046;-62
2023/08/29 09:47:25;;;;;;;0.10;0.10;;;19.40;99.90;;;;;;5153605;27;20054;-63
2023/08/29 09:49:51;;;;;;;0.20;0.20;;;18.90;99.90;;;;;;5153083;27;20073;-62
2023/08/29 09:52:18;;;;;;;0.03;0.03;;;19.20;99.90;;;;;;5145193;27;20490;-63
2023/08/29 09:54:48;;;;;;;0.50;0.50;;;19.40;99.90;;;;;;5152818;27;20117;-62
2023/08/29 09:57:16;;;;;;;0.10;0.10;;;19.20;99.90;;;;;;5152805;27;20444;-62
2023/08/29 09:59:43;;;;;;;0.30;0.30;;;19.40;99.90;;;;;;5152424;27;20099;-62
2023/08/29 10:02:11;;;;;;;0.40;0.30;;;19.20;99.90;;;;;;5152560;27;20082;-62
2023/08/29 10:04:50;;;;;;;0.10;0.10;;;19.20;99.90;;;;;;5152899;27;20046;-62
2023/08/29 10:07:33;;;;;;;0.10;0.10;;;19.10;99.90;;;;;;5151389;27;20073;-69
2023/08/29 10:10:00;;;;;;;0.17;0.17;;;19.30;99.90;;;;;;5152236;27;20058;-62
2023/08/29 10:12:27;;;;;;;0.22;0.22;;;19.60;99.90;;;;;;5144387;27;20090;-62
2023/08/29 10:14:54;;;;;;;0.75;0.30;;;19.20;99.90;;;;;;5145775;27;20490;-63
2023/08/29 10:17:22;;;;;;;0.60;0.17;;;19.20;99.90;;;;;;5153093;27;20057;-63
2023/08/29 10:19:50;;;;;;;0.10;0.10;;;19.50;99.90;;;;;;5153207;27;20558;-61
2023/08/29 10:22:18;;;;;;;1.17;0.57;;;19.50;99.90;;;;;;5153179;27;20054;-62
2023/08/29 10:24:44;;;;;;;0.15;0.15;;;19.30;99.90;;;;;;5153037;27;20085;-61
2023/08/29 10:27:10;;;;;;;0.20;0.20;;;19.70;99.90;;;;;;5153257;27;20047;-61
2023/08/29 10:29:37;;;;;;;0.30;0.30;;;20.10;99.90;;;;;;5153189;27;20054;-63
2023/08/29 10:32:05;;;;;;;0.28;0.28;;;19.90;99.90;;;;;;5153265;27;20089;-61
2023/08/29 10:34:30;;;;;;;0.00;0.00;;;20.10;99.90;;;;;;5153369;27;20038;-61
2023/08/29 10:36:57;;;;;;;0.10;0.10;;;20.20;99.90;;;;;;5153137;27;20045;-62
2023/08/29 10:39:25;;;;;;;0.10;0.10;;;20.00;99.90;;;;;;5146185;27;20050;-67
2023/08/29 10:41:54;;;;;;;0.25;0.20;;;20.70;99.90;;;;;;5130157;27;20130;-63
2023/08/29 10:44:35;;;;;;;0.03;0.03;;;20.50;99.90;;;;;;5131776;27;20067;-61
2023/08/29 10:47:14;;;;;;;0.30;0.30;;;20.10;99.90;;;;;;5132710;27;20500;-62
2023/08/29 10:49:43;;;;;;;6.03;0.30;;;20.20;99.90;;;;;;5132211;28;20134;-62
2023/08/29 10:52:10;;;;;;;0.73;0.73;;;20.30;99.90;;;;;;5132220;28;20039;-62
2023/08/29 10:54:36;;;;;;;0.52;0.22;;;20.30;99.90;;;;;;5132009;28;20083;-64
2023/08/29 10:57:26;;;;;;;0.20;0.20;;;20.30;99.90;;;;;;5131681;28;20083;-62
2023/08/29 10:59:52;;;;;;;0.10;0.10;;;19.90;99.90;;;;;;5132160;28;20059;-64
2023/08/29 11:02:27;;;;;;;0.10;0.10;;;20.20;99.90;;;;;;5133996;27;20054;-61
2023/08/29 11:05:10;;;;;;;0.00;0.00;;;20.00;99.90;;;;;;5117720;27;20050;-62
2023/08/29 11:07:36;;;;;;;0.15;0.15;;;20.30;99.90;;;;;;5135968;27;20046;-62
2023/08/29 11:10:15;;;;;;;0.22;0.22;;;20.10;99.90;;;;;;5117437;27;20065;-63
2023/08/29 11:13:09;;;;;;;0.13;0.13;;;19.90;99.90;;;;;;5135979;27;20046;-61
2023/08/29 11:15:47;;;;;;;0.22;0.22;;;20.40;99.90;;;;;;5136077;27;20066;-61
2023/08/29 11:18:34;;;;;;;0.10;0.10;;;20.50;99.90;;;;;;5135817;27;20043;-62
2023/08/29 11:21:08;;;;;;;0.10;0.10;;;20.00;99.90;;;;;;5135843;27;20046;-61
2023/08/29 11:23:41;;;;;;;0.00;0.00;;;20.30;99.90;;;;;;5135671;27;20042;-62
2023/08/29 11:26:08;;;;;;;0.20;0.20;;;20.40;99.90;;;;;;5135738;27;20175;-65
2023/08/29 11:28:45;;;;;;;0.17;0.17;;;20.00;99.90;;;;;;5135645;27;20051;-62
2023/08/29 11:31:12;;;;;;;0.30;0.30;;;20.10;99.90;;;;;;5135329;27;20503;-61
2023/08/29 11:33:38;;;;;;;0.10;0.10;;;20.30;99.90;;;;;;5135547;27;20080;-63
2023/08/29 11:36:05;;;;;;;0.20;0.20;;;19.80;99.90;;;;;;5135392;27;20092;-61
2023/08/29 11:38:32;;;;;;;1.20;0.63;;;19.80;99.90;;;;;;5135346;27;20053;-62
2023/08/29 11:41:04;;;;;;;0.10;0.10;;;20.20;99.90;;;;;;5135352;27;20083;-62
2023/08/29 11:43:31;;;;;;;0.75;0.38;;;19.90;99.90;;;;;;5135316;27;20111;-61
2023/08/29 11:45:58;;;;;;;0.08;0.08;;;20.50;99.90;;;;;;5135272;27;20043;-63
2023/08/29 11:48:25;;;;;;;0.40;0.40;;;20.20;99.90;;;;;;5135252;27;20129;-62
2023/08/29 11:51:04;;;;;;;0.13;0.13;;;20.40;99.90;;;;;;5135178;27;20482;-61
2023/08/29 11:53:34;;;;;;;0.17;0.17;;;20.30;99.90;;;;;;5135223;27;20128;-61
2023/08/29 11:56:03;;;;;;;0.28;0.28;;;20.50;99.90;;;;;;5117073;27;20426;-62
2023/08/29 11:58:39;;;;;;;0.17;0.17;;;20.30;99.90;;;;;;5135387;27;20055;-62
2023/08/29 12:01:10;;;;;;;0.22;0.22;;;20.50;99.90;;;;;;5135318;27;20057;-62
2023/08/29 12:03:38;;;;;;;0.30;0.30;;;20.30;99.90;;;;;;5135058;27;20049;-62
2023/08/29 12:06:10;;;;;;;0.30;0.20;;;20.10;99.90;;;;;;5134967;27;20391;-61
2023/08/29 12:08:37;;;;;;;0.10;0.10;;;20.10;99.90;;;;;;5134678;27;20059;-61
2023/08/29 12:11:03;;;;;;;0.10;0.10;;;20.10;99.90;;;;;;5134826;27;20050;-62
2023/08/29 12:13:29;;;;;;;0.20;0.20;;;20.20;99.90;;;;;;5134275;27;20039;-62
2023/08/29 12:15:55;;;;;;;0.00;0.00;;;20.20;99.90;;;;;;5134665;27;20525;-62
2023/08/29 12:18:23;;;;;;;0.03;0.03;;;20.10;99.90;;;;;;5134695;27;20054;-62
2023/08/29 12:20:49;;;;;;;0.15;0.15;;;19.80;99.90;;;;;;5134590;27;20042;-62
2023/08/29 12:23:27;;;;;;;0.10;0.10;;;20.50;99.90;;;;;;5134507;27;20386;-61
2023/08/29 12:25:55;;;;;;;0.17;0.17;;;20.50;99.90;;;;;;5134542;27;20047;-62
2023/08/29 12:28:23;;;;;;;0.20;0.20;;;20.50;99.90;;;;;;5134412;27;20050;-62
2023/08/29 12:30:48;;;;;;;0.75;0.43;;;20.60;99.90;;;;;;5134426;27;20058;-62
2023/08/29 12:33:14;;;;;;;0.20;0.20;;;20.50;99.90;;;;;;5134279;27;20044;-62
2023/08/29 12:35:40;;;;;;;0.10;0.10;;;20.80;99.90;;;;;;5134210;27;20080;-61
2023/08/29 12:38:06;;;;;;;0.22;0.22;;;20.60;99.90;;;;;;5116097;27;20509;-63
2023/08/29 12:40:32;;;;;;;0.08;0.08;;;21.00;99.90;;;;;;5134194;27;20086;-62
2023/08/29 12:42:58;;;;;;;0.32;0.32;;;21.20;99.90;;;;;;5134012;27;20050;-63
2023/08/29 12:45:23;;;;;;;0.70;0.35;;;20.80;99.90;;;;;;5115570;27;20043;-62
2023/08/29 12:47:50;;;;;;;0.10;0.10;;;21.10;99.90;;;;;;5134039;27;20085;-62
2023/08/29 12:50:17;;;;;;;0.20;0.20;;;21.00;99.90;;;;;;5134082;27;20050;-62
2023/08/29 12:52:42;;;;;;;0.10;0.10;;;21.10;99.90;;;;;;5133935;27;20058;-62